M I D A S
Marine Information and Data Acquisition System
Tripno 1067 of the Zeeleeuw from 2006-04-12 06:24:14 to 2006-04-12 11:47:52
Back to CruiseResearch ActivitiesStationsMapUnderway DataData graphs

EquipmentUnitsComment
TimeDGPSUTC
LatitudeDGPSDM.mWGS84
LongitudeDGPSDM.mWGS84
HeadingGyrodeg 
SOGDGPSknotsSpeed over ground
COGDGPSdegCourse over ground
DepthEcho soundermeters200 kHz
Missing or incorrect values are displayed as -999
Navigation data collected by the RV Zeeleeuw from 2006-04-12 06:04:08 to 2006-04-12 12:02:19
Time Latitude Longitude Heading SOG COG Depth
2006-04-12 06:05:13 51°13.602 2°56.099 125.4 0.1 168 -999
2006-04-12 06:06:14 51°13.601 2°56.099 125.5 -999 164 -999
2006-04-12 06:07:14 51°13.601 2°56.098 125.5 -999 157 -999
2006-04-12 06:08:13 51°13.601 2°56.098 125.5 -999 8 -999
2006-04-12 06:09:12 51°13.602 2°56.099 125.5 -999 59 -999
2006-04-12 06:10:12 51°13.603 2°56.099 125.5 -999 64 -999
2006-04-12 06:11:12 51°13.604 2°56.099 125.5 -999 146 -999
2006-04-12 06:12:11 51°13.605 2°56.1 125.5 -999 151 -999
2006-04-12 06:13:13 51°13.606 2°56.099 125.6 -999 334 -999
2006-04-12 06:14:11 51°13.607 2°56.099 125.7 -999 13 -999
2006-04-12 06:15:11 51°13.607 2°56.099 125.7 -999 56 -999
2006-04-12 06:16:11 51°13.606 2°56.099 125.7 -999 217 -999
2006-04-12 06:17:11 51°13.604 2°56.099 125.7 -999 26 -999
2006-04-12 06:18:11 51°13.605 2°56.099 125.7 -999 24 -999
2006-04-12 06:19:11 51°13.605 2°56.099 125.7 -999 201 -999
2006-04-12 06:20:11 51°13.603 2°56.099 125.7 -999 209 -999
2006-04-12 06:21:11 51°13.6 2°56.097 125.7 -999 70 -999
2006-04-12 06:22:11 51°13.6 2°56.097 125.8 -999 67 -999
2006-04-12 06:23:11 51°13.6 2°56.097 126.1 -999 17 -999
2006-04-12 06:24:11 51°13.6 2°56.097 122.3 -999 192 -999
2006-04-12 06:25:11 51°13.599 2°56.097 112.3 0.1 195 -999
2006-04-12 06:26:11 51°13.605 2°56.066 110.6 2.3 288 -999
2006-04-12 06:27:11 51°13.622 2°55.978 118.4 4.2 292 -999
2006-04-12 06:28:11 51°13.664 2°55.871 129.1 5 304 -999
2006-04-12 06:29:11 51°13.703 2°55.774 122.9 3.8 299 -999
2006-04-12 06:30:11 51°13.716 2°55.739 100.9 0.5 81 -999
2006-04-12 06:31:11 51°13.714 2°55.744 59.8 1.7 235 -999
2006-04-12 06:32:11 51°13.713 2°55.735 27.6 1.5 22 -999
2006-04-12 06:33:11 51°13.761 2°55.703 329.6 5 325 8.5
2006-04-12 06:34:11 51°13.855 2°55.619 338.9 7.1 335 -999
2006-04-12 06:35:11 51°13.966 2°55.54 340.8 7.4 337 8.8
2006-04-12 06:36:11 51°14.079 2°55.459 339.6 7.5 336 8.9
2006-04-12 06:37:11 51°14.187 2°55.363 330.2 7.4 326 8.8
2006-04-12 06:38:11 51°14.289 2°55.211 315.7 9 311 -999
2006-04-12 06:39:11 51°14.397 2°55.031 322.8 9.7 317 8.9
2006-04-12 06:40:11 51°14.536 2°54.88 345.2 10.7 339 8.2
2006-04-12 06:41:11 51°14.718 2°54.791 350.8 11.9 342 8
2006-04-12 06:42:11 51°14.91 2°54.698 351.1 12.1 343 7.7
2006-04-12 06:43:11 51°15.101 2°54.61 352.7 11.8 346 7
2006-04-12 06:44:11 51°15.296 2°54.584 5 11.9 353 7.5
2006-04-12 06:45:10 51°15.489 2°54.544 4.7 12 354 7.9
2006-04-12 06:46:10 51°15.686 2°54.488 2 11.9 352 8.7
2006-04-12 06:47:11 51°15.884 2°54.471 6.5 11.7 -999 9.3
2006-04-12 06:48:11 51°16.075 2°54.461 7.2 10 359 9.8
2006-04-12 06:49:11 51°16.173 2°54.443 1.6 4 347 10.3
2006-04-12 06:50:11 51°16.204 2°54.423 357.2 1 326 10.1
2006-04-12 06:51:11 51°16.211 2°54.409 353.9 0.5 311 10.4
2006-04-12 06:52:11 51°16.216 2°54.394 350.2 0.9 304 10.3
2006-04-12 06:53:11 51°16.233 2°54.354 325.2 2.1 293 10.4
2006-04-12 06:54:11 51°16.236 2°54.288 292.9 2.8 260 10.3
2006-04-12 06:55:11 51°16.21 2°54.217 249.6 3.5 227 10.3
2006-04-12 06:56:11 51°16.163 2°54.16 220.2 3.7 211 10.1
2006-04-12 06:57:11 51°16.103 2°54.12 190.6 3.9 194 10.4
2006-04-12 06:58:11 51°16.048 2°54.125 145.1 3.2 161 10.3
2006-04-12 06:59:11 51°16.021 2°54.179 84.9 2 109 10.2
2006-04-12 07:00:11 51°16.018 2°54.222 60.9 1.2 76 10
2006-04-12 07:01:10 51°16.025 2°54.244 37.5 0.9 40 10
2006-04-12 07:02:11 51°16.038 2°54.252 22.5 0.9 12 10.4
2006-04-12 07:03:11 51°16.051 2°54.251 12.7 0.8 348 10.4
2006-04-12 07:04:10 51°16.061 2°54.249 13.4 0.5 346 10.1
2006-04-12 07:05:11 51°16.068 2°54.245 12.1 0.3 298 10.3
2006-04-12 07:06:10 51°16.064 2°54.241 14.3 0.6 197 10.2
2006-04-12 07:07:11 51°16.05 2°54.236 24.3 0.9 195 10.3
2006-04-12 07:08:10 51°16.055 2°54.238 17.8 1.7 4 10.2
2006-04-12 07:09:10 51°16.111 2°54.174 326.6 6 313 10.5
2006-04-12 07:10:11 51°16.19 2°54.043 328.2 7.3 314 10.5
2006-04-12 07:11:10 51°16.276 2°53.907 329.8 7.4 317 10.7
2006-04-12 07:12:11 51°16.352 2°53.791 328.7 5.5 317 10.9
2006-04-12 07:13:10 51°16.409 2°53.694 325.2 4.9 311 11
2006-04-12 07:14:10 51°16.463 2°53.597 326.6 4.9 312 11
2006-04-12 07:15:10 51°16.519 2°53.505 328.3 4.8 314 11
2006-04-12 07:16:10 51°16.574 2°53.412 326.1 4.9 312 11.1
2006-04-12 07:17:11 51°16.631 2°53.316 327.8 5 315 10.9
2006-04-12 07:18:11 51°16.69 2°53.225 329.3 4.8 316 10.8
2006-04-12 07:19:11 51°16.748 2°53.138 329.5 4.8 316 10.5
2006-04-12 07:20:11 51°16.806 2°53.052 329.5 4.6 316 9.9
2006-04-12 07:21:11 51°16.861 2°52.964 328 4.8 314 8
2006-04-12 07:22:10 51°16.917 2°52.878 329.5 4.8 317 8.7
2006-04-12 07:23:11 51°16.977 2°52.793 331.7 4.8 318 9.1
2006-04-12 07:24:10 51°17.036 2°52.713 333.4 4.5 319 9.6
2006-04-12 07:25:11 51°17.094 2°52.626 330.6 4.9 316 9.3
2006-04-12 07:26:11 51°17.155 2°52.54 333.1 4.8 320 9.1
2006-04-12 07:27:11 51°17.214 2°52.452 330.1 4.9 315 9.5
2006-04-12 07:28:11 51°17.273 2°52.361 333.6 4.9 320 9.9
2006-04-12 07:29:11 51°17.335 2°52.279 336.6 4.8 323 10
2006-04-12 07:30:11 51°17.4 2°52.207 340.2 4.8 326 10
2006-04-12 07:31:10 51°17.465 2°52.141 340.6 4.6 327 9.9
2006-04-12 07:32:10 51°17.532 2°52.076 344.1 4.8 330 10
2006-04-12 07:33:11 51°17.602 2°52.02 346.1 4.4 334 10
2006-04-12 07:34:11 51°17.668 2°51.965 345.4 4.4 334 10
2006-04-12 07:35:11 51°17.734 2°51.91 344.6 4.1 337 9.9
2006-04-12 07:36:11 51°17.794 2°51.86 345.1 4.3 333 10.1
2006-04-12 07:37:11 51°17.855 2°51.803 342.6 4.5 329 10
2006-04-12 07:38:11 51°17.917 2°51.751 344.4 4.2 333 10.2
2006-04-12 07:39:11 51°17.979 2°51.693 344.7 4.4 331 10.3
2006-04-12 07:40:11 51°18.045 2°51.63 344 4.7 330 10.7
2006-04-12 07:41:11 51°18.113 2°51.568 344 4.6 331 10.8
2006-04-12 07:42:11 51°18.171 2°51.513 344.1 4 328 11.5
2006-04-12 07:43:11 51°18.234 2°51.448 342.6 4.6 327 11.6
2006-04-12 07:44:11 51°18.299 2°51.379 343.1 4.8 328 12.2
2006-04-12 07:45:10 51°18.364 2°51.311 345.5 4.6 330 12.5
2006-04-12 07:46:11 51°18.43 2°51.248 347.7 4.3 332 12.9
2006-04-12 07:47:11 51°18.488 2°51.197 347.8 3.6 323 13.5
2006-04-12 07:48:11 51°18.527 2°51.14 346.4 3 315 13.6
2006-04-12 07:49:10 51°18.547 2°51.084 328.7 2.4 281 13.7
2006-04-12 07:50:11 51°18.542 2°51.022 302.2 2.2 248 13.7
2006-04-12 07:51:10 51°18.519 2°50.971 268.3 2.5 225 13.6
2006-04-12 07:52:11 51°18.477 2°50.923 216.8 3.6 209 13.6
2006-04-12 07:53:11 51°18.415 2°50.892 175.1 3.8 190 13.6
2006-04-12 07:54:11 51°18.358 2°50.885 151.3 3.1 179 13.4
2006-04-12 07:55:11 51°18.316 2°50.894 119.6 2.1 167 13.2
2006-04-12 07:56:11 51°18.296 2°50.919 69.3 1.2 102 13.2
2006-04-12 07:57:11 51°18.304 2°50.949 39.9 1.4 46 13
2006-04-12 07:58:11 51°18.329 2°50.96 15.3 1.5 353 13.1
2006-04-12 07:59:11 51°18.348 2°50.943 3 1.3 317 13.2
2006-04-12 08:00:11 51°18.36 2°50.918 353.8 1.2 299 13.5
2006-04-12 08:01:11 51°18.371 2°50.884 344.7 1.7 291 13.5
2006-04-12 08:02:11 51°18.377 2°50.838 328.2 1.6 268 13.1
2006-04-12 08:03:11 51°18.378 2°50.782 314 2.7 274 13.6
2006-04-12 08:04:11 51°18.408 2°50.705 347.6 3.3 333 13.5
2006-04-12 08:05:11 51°18.445 2°50.747 59.3 3.2 65 14.1
2006-04-12 08:06:11 51°18.453 2°50.79 50.8 0.9 72 13.8
2006-04-12 08:07:11 51°18.448 2°50.799 46.4 0.7 155 14
2006-04-12 08:08:11 51°18.438 2°50.798 42.4 0.9 195 13.8
2006-04-12 08:09:11 51°18.423 2°50.79 35.5 1.1 193 13.7
2006-04-12 08:10:11 51°18.405 2°50.778 34.9 1.4 197 13.8
2006-04-12 08:11:11 51°18.398 2°50.769 17.3 1 334 13.5
2006-04-12 08:12:11 51°18.423 2°50.706 316.4 4.4 283 14
2006-04-12 08:13:11 51°18.402 2°50.54 270 7.5 255 14
2006-04-12 08:14:11 51°18.382 2°50.333 282.7 8.3 265 14.1
2006-04-12 08:15:11 51°18.377 2°50.093 283.3 9.3 267 14
2006-04-12 08:16:11 51°18.354 2°49.844 273.6 9.7 260 13.7
2006-04-12 08:17:11 51°18.324 2°49.593 272.7 9.5 258 12.7
2006-04-12 08:18:11 51°18.295 2°49.347 273.3 9.4 260 11.8
2006-04-12 08:19:11 51°18.271 2°49.098 273.9 9.6 262 10.3
2006-04-12 08:20:11 51°18.246 2°48.856 270.6 9.3 259 10.6
2006-04-12 08:21:11 51°18.215 2°48.612 270.1 9.4 259 10.4
2006-04-12 08:22:11 51°18.187 2°48.368 268.8 9.4 259 10.1
2006-04-12 08:23:11 51°18.152 2°48.132 267.7 8.9 257 10.4
2006-04-12 08:24:11 51°18.115 2°47.897 265.6 9.3 255 11.5
2006-04-12 08:25:11 51°18.078 2°47.661 266.2 9.2 256 12.4
2006-04-12 08:26:11 51°18.039 2°47.426 265.4 9.2 255 12.4
2006-04-12 08:27:11 51°18 2°47.189 265.7 9.4 255 12.1
2006-04-12 08:28:11 51°17.96 2°46.951 266.7 9.3 255 13.7
2006-04-12 08:29:11 51°17.917 2°46.713 267.3 9.3 254 13.8
2006-04-12 08:30:11 51°17.879 2°46.468 269.2 9.7 256 16.4
2006-04-12 08:31:11 51°17.838 2°46.224 269 9.6 256 16
2006-04-12 08:32:11 51°17.795 2°45.975 268.1 9.6 254 16.3
2006-04-12 08:33:11 51°17.754 2°45.726 269.8 9.8 256 15.2
2006-04-12 08:34:11 51°17.716 2°45.48 269.1 9.5 255 16.3
2006-04-12 08:35:11 51°17.679 2°45.23 271 9.5 256 17.2
2006-04-12 08:36:11 51°17.647 2°44.979 272.9 9.4 257 17.3
2006-04-12 08:37:11 51°17.615 2°44.735 271.3 9.4 259 17.2
2006-04-12 08:38:11 51°17.586 2°44.489 273.3 9.5 260 17.2
2006-04-12 08:39:11 51°17.557 2°44.24 272.7 9.4 259 17.2
2006-04-12 08:40:11 51°17.529 2°43.996 272.1 9.2 260 16.4
2006-04-12 08:41:11 51°17.501 2°43.755 272.8 9 259 14.2
2006-04-12 08:42:11 51°17.476 2°43.518 272.2 9.1 262 14.9
2006-04-12 08:43:11 51°17.455 2°43.276 272.1 9.3 262 12.3
2006-04-12 08:44:11 51°17.435 2°43.034 272.1 9.2 263 11
2006-04-12 08:45:11 51°17.418 2°42.796 272.4 9.1 264 12.9
2006-04-12 08:46:11 51°17.4 2°42.557 272.9 9.1 264 19.6
2006-04-12 08:47:11 51°17.384 2°42.322 272.1 8.7 263 22.2
2006-04-12 08:48:11 51°17.362 2°42.093 270.3 8.7 262 23.5
2006-04-12 08:49:11 51°17.341 2°41.863 271.3 9 262 23.6
2006-04-12 08:50:11 51°17.321 2°41.617 272 9.6 262 24.1
2006-04-12 08:51:11 51°17.3 2°41.363 272.6 9.8 263 24.3
2006-04-12 08:52:11 51°17.272 2°41.108 269.1 9.6 260 23.8
2006-04-12 08:53:11 51°17.244 2°40.862 270.1 9.5 261 23.3
2006-04-12 08:54:11 51°17.215 2°40.602 270.2 9.7 258 21.5
2006-04-12 08:55:11 51°17.187 2°40.349 270.7 9.9 261 20.4
2006-04-12 08:56:11 51°17.161 2°40.087 270.9 9.9 261 17
2006-04-12 08:57:11 51°17.133 2°39.825 271.4 10.1 261 15.3
2006-04-12 08:58:11 51°17.111 2°39.565 270.5 9.9 261 13.9
2006-04-12 08:59:11 51°17.086 2°39.313 268.3 9.7 260 12.9
2006-04-12 09:00:10 51°17.053 2°39.066 265.6 9.7 258 9.9
2006-04-12 09:01:11 51°17.017 2°38.817 264.8 9.5 257 9.1
2006-04-12 09:02:10 51°16.984 2°38.577 265.9 9.6 260 17.2
2006-04-12 09:03:11 51°16.947 2°38.333 264.1 9.2 256 23.3
2006-04-12 09:04:11 51°16.915 2°38.09 264.6 9.1 258 25.3
2006-04-12 09:05:11 51°16.881 2°37.846 264.2 9.3 256 27.1
2006-04-12 09:06:11 51°16.846 2°37.598 265.8 9.6 257 26.6
2006-04-12 09:07:11 51°16.814 2°37.353 268.3 9.4 260 27.5
2006-04-12 09:08:11 51°16.802 2°37.119 276.4 7.3 266 27.6
2006-04-12 09:09:10 51°16.789 2°36.978 274.3 4.2 257 27.5
2006-04-12 09:10:11 51°16.773 2°36.899 273.8 2.5 248 27.4
2006-04-12 09:11:10 51°16.754 2°36.848 260 2.2 235 27.2
2006-04-12 09:12:11 51°16.725 2°36.801 232.7 2.6 217 26.8
2006-04-12 09:13:11 51°16.678 2°36.769 195.5 3.3 195 27.1
2006-04-12 09:14:11 51°16.622 2°36.76 169.7 3.4 178 27.3
2006-04-12 09:15:11 51°16.571 2°36.79 132.9 3.1 148 27.1
2006-04-12 09:16:11 51°16.54 2°36.841 111 2.4 123 27.2
2006-04-12 09:17:11 51°16.529 2°36.89 80 1.6 95 27.3
2006-04-12 09:18:11 51°16.53 2°36.92 55.1 0.9 81 27.1
2006-04-12 09:19:11 51°16.53 2°36.937 40.2 0.6 85 26.4
2006-04-12 09:20:11 51°16.532 2°36.948 29.9 0.3 72 26.8
2006-04-12 09:21:11 51°16.538 2°36.957 15.4 0.9 28 27.2
2006-04-12 09:22:11 51°16.556 2°36.957 354.5 1.3 354 27.3
2006-04-12 09:23:11 51°16.579 2°36.939 337.3 2.1 326 27.6
2006-04-12 09:24:11 51°16.608 2°36.906 335.2 2.1 320 27.6
2006-04-12 09:25:11 51°16.633 2°36.87 330.2 2 315 27.5
2006-04-12 09:26:11 51°16.653 2°36.837 330.6 1.2 314 27.3
2006-04-12 09:27:11 51°16.667 2°36.813 330.9 0.6 306 27.5
2006-04-12 09:28:11 51°16.663 2°36.813 345.8 0.7 149 27.5
2006-04-12 09:29:11 51°16.649 2°36.82 9.3 0.9 161 27.7
2006-04-12 09:30:11 51°16.635 2°36.826 27.3 0.9 160 27.3
2006-04-12 09:31:11 51°16.621 2°36.831 44 0.9 165 27.6
2006-04-12 09:32:10 51°16.609 2°36.839 45.3 0.8 161 27.5
2006-04-12 09:33:11 51°16.598 2°36.847 43.5 0.7 157 27.6
2006-04-12 09:34:10 51°16.586 2°36.855 40.5 1 147 27.4
2006-04-12 09:35:11 51°16.576 2°36.864 40.4 0.7 140 27.7
2006-04-12 09:36:11 51°16.566 2°36.876 39.3 0.7 144 27.7
2006-04-12 09:37:11 51°16.563 2°36.894 44.8 1.2 72 27.6
2006-04-12 09:38:11 51°16.59 2°36.979 68.7 5.4 74 28
2006-04-12 09:39:11 51°16.55 2°37.136 137.6 7.6 142 27.6
2006-04-12 09:40:11 51°16.42 2°37.202 165.6 8.6 162 27.4
2006-04-12 09:41:11 51°16.278 2°37.275 166.6 9.2 163 23.3
2006-04-12 09:42:11 51°16.126 2°37.343 167.3 9.5 163 16.4
2006-04-12 09:43:11 51°15.974 2°37.434 158 9.9 156 11.2
2006-04-12 09:44:11 51°15.824 2°37.561 158.1 10.1 151 11.8
2006-04-12 09:45:11 51°15.671 2°37.685 159 10.3 155 12
2006-04-12 09:46:10 51°15.521 2°37.81 156 10.4 151 12.4
2006-04-12 09:47:11 51°15.366 2°37.946 155.9 10.5 155 12.6
2006-04-12 09:48:11 51°15.21 2°38.08 157 10.9 148 13
2006-04-12 09:49:11 51°15.05 2°38.211 157.4 10.7 152 15.9
2006-04-12 09:50:11 51°14.891 2°38.337 156.2 10.7 151 17.7
2006-04-12 09:51:11 51°14.731 2°38.464 157.5 10.8 154 18.2
2006-04-12 09:52:11 51°14.569 2°38.59 157.9 10.9 151 18.5
2006-04-12 09:53:11 51°14.407 2°38.714 159.7 10.8 156 19.4
2006-04-12 09:54:11 51°14.241 2°38.826 160.7 10.8 157 16
2006-04-12 09:55:10 51°14.079 2°38.941 159.6 10.9 157 14.2
2006-04-12 09:56:11 51°13.904 2°38.992 187.5 10.5 183 15.5
2006-04-12 09:57:11 51°13.735 2°38.94 204.7 10.3 195 16.3
2006-04-12 09:58:11 51°13.579 2°38.849 210.4 9.9 202 16.5
2006-04-12 09:59:11 51°13.431 2°38.746 213.3 9.7 204 15.9
2006-04-12 10:00:11 51°13.285 2°38.644 212.6 9.5 204 16.3
2006-04-12 10:01:11 51°13.141 2°38.542 212.9 9.5 206 16
2006-04-12 10:02:11 51°12.998 2°38.439 211.7 9.3 205 15.6
2006-04-12 10:03:11 51°12.853 2°38.339 212.5 9.4 203 15.4
2006-04-12 10:04:11 51°12.711 2°38.232 212.5 9.5 205 15.4
2006-04-12 10:05:11 51°12.567 2°38.126 214.4 9.6 205 15.3
2006-04-12 10:06:11 51°12.423 2°38.02 213.8 9.7 201 15.3
2006-04-12 10:07:11 51°12.279 2°37.912 212.9 9.6 203 15.1
2006-04-12 10:08:11 51°12.135 2°37.81 212.6 9.4 206 15.4
2006-04-12 10:09:11 51°11.994 2°37.708 213.9 9.3 205 15.5
2006-04-12 10:10:11 51°11.853 2°37.604 213.9 9.4 205 16
2006-04-12 10:11:11 51°11.712 2°37.501 213 9.2 202 15.8
2006-04-12 10:12:11 51°11.572 2°37.401 212.3 9.1 205 16.2
2006-04-12 10:13:11 51°11.434 2°37.302 213.3 9.1 203 16
2006-04-12 10:14:11 51°11.295 2°37.203 212.4 9.2 202 15.6
2006-04-12 10:15:11 51°11.153 2°37.113 208.9 9.3 201 15
2006-04-12 10:16:11 51°11.009 2°37.03 209.5 9.3 198 14.3
2006-04-12 10:17:11 51°10.865 2°36.946 208.9 9.2 199 13.2
2006-04-12 10:18:11 51°10.724 2°36.862 208.9 8.9 205 12.5
2006-04-12 10:19:11 51°10.581 2°36.783 209.6 9.1 199 11.4
2006-04-12 10:20:11 51°10.435 2°36.721 198.1 9.3 188 12.6
2006-04-12 10:21:11 51°10.281 2°36.784 162.1 10.3 149 19.3
2006-04-12 10:22:11 51°10.182 2°37.014 118.5 11.1 106 20.3
2006-04-12 10:23:11 51°10.183 2°37.314 87.9 11.6 85 20.5
2006-04-12 10:24:11 51°10.23 2°37.615 74.2 11.9 75 20.4
2006-04-12 10:25:11 51°10.288 2°37.913 77.1 11.8 73 20
2006-04-12 10:26:11 51°10.338 2°38.216 78.2 11.8 77 19.3
2006-04-12 10:27:11 51°10.389 2°38.519 78.3 11.8 76 18.8
2006-04-12 10:28:11 51°10.44 2°38.823 78.2 11.9 75 18.7
2006-04-12 10:29:11 51°10.491 2°39.129 78.8 11.8 75 18.1
2006-04-12 10:30:11 51°10.541 2°39.433 78.3 11.9 75 17.5
2006-04-12 10:31:11 51°10.592 2°39.736 77.9 11.7 73 17.1
2006-04-12 10:32:11 51°10.643 2°40.037 76.5 11.7 74 16.8
2006-04-12 10:33:11 51°10.698 2°40.335 77.6 11.7 73 16.1
2006-04-12 10:34:11 51°10.751 2°40.634 77.6 11.2 74 15.7
2006-04-12 10:35:11 51°10.797 2°40.884 76.9 9.4 73 15.3
2006-04-12 10:36:11 51°10.836 2°41.102 76.2 7.8 74 15.3
2006-04-12 10:37:11 51°10.87 2°41.288 76.1 7.1 74 15.2
2006-04-12 10:38:11 51°10.893 2°41.468 86.9 6.9 82 15.2
2006-04-12 10:39:11 51°10.912 2°41.618 76.2 4.7 75 15.2
2006-04-12 10:40:11 51°10.922 2°41.698 90.7 1.7 77 15.3
2006-04-12 10:41:11 51°10.929 2°41.771 81.3 3.4 81 15.2
2006-04-12 10:42:11 51°10.952 2°41.853 40.3 3.1 59 15.2
2006-04-12 10:43:11 51°10.977 2°41.918 21.7 2.8 55 15.6
2006-04-12 10:44:11 51°11.006 2°41.974 3.6 2.9 43 15.5
2006-04-12 10:45:11 51°11.044 2°42.018 346.9 2.7 31 15.1
2006-04-12 10:46:11 51°11.082 2°42.042 325 2.3 17 15.1
2006-04-12 10:47:11 51°11.111 2°42.044 297.8 1.5 345 15
2006-04-12 10:48:11 51°11.129 2°42.022 281.6 1.3 306 14.9
2006-04-12 10:49:11 51°11.119 2°42.008 229.4 1.4 179 14.7
2006-04-12 10:50:11 51°11.084 2°42.029 186.3 2.9 143 15.3
2006-04-12 10:51:11 51°11.052 2°42.104 143.3 3.4 114 15.4
2006-04-12 10:52:11 51°11.037 2°42.187 136.6 3.2 104 15.5
2006-04-12 10:53:11 51°11.025 2°42.275 116.3 4.1 95 15.6
2006-04-12 10:54:11 51°11.046 2°42.384 50.9 4.4 56 15.4
2006-04-12 10:55:11 51°11.1 2°42.441 349.1 3.3 15 15.5
2006-04-12 10:56:11 51°11.142 2°42.427 300.3 2.4 324 15.5
2006-04-12 10:57:11 51°11.164 2°42.411 291 0.9 11 15.4
2006-04-12 10:58:11 51°11.173 2°42.431 279.8 1.2 71 15.3
2006-04-12 10:59:11 51°11.176 2°42.474 259 1.9 84 15.4
2006-04-12 11:00:11 51°11.18 2°42.525 236.3 1.9 80 15.3
2006-04-12 11:01:11 51°11.17 2°42.572 196 3.1 150 15.4
2006-04-12 11:02:11 51°11.107 2°42.699 127.6 8.6 112 15.7
2006-04-12 11:03:11 51°11.116 2°42.986 88.4 12.3 80 15.5
2006-04-12 11:04:11 51°11.155 2°43.319 84.9 13.1 81 15.4
2006-04-12 11:05:11 51°11.198 2°43.659 86.5 13.5 80 15.3
2006-04-12 11:06:11 51°11.244 2°44.025 85.5 14.7 80 15.4
2006-04-12 11:07:11 51°11.291 2°44.411 85.2 14.7 78 15.2
2006-04-12 11:08:11 51°11.337 2°44.798 86.2 15 79 15.1
2006-04-12 11:09:11 51°11.389 2°45.184 84.3 14.8 74 14.9
2006-04-12 11:10:11 51°11.449 2°45.566 82.7 14.9 76 14.7
2006-04-12 11:11:11 51°11.503 2°45.921 83.5 13.4 76 14.4
2006-04-12 11:12:11 51°11.557 2°46.268 83 13.4 76 14.1
2006-04-12 11:13:11 51°11.609 2°46.614 84.2 13.5 77 13.4
2006-04-12 11:14:11 51°11.664 2°46.96 82.8 13.5 74 12.9
2006-04-12 11:15:11 51°11.72 2°47.306 83.9 13.7 78 12.4
2006-04-12 11:16:11 51°11.791 2°47.642 76.9 13.2 71 12.2
2006-04-12 11:17:11 51°11.88 2°47.961 68.3 13.3 59 12.3
2006-04-12 11:18:11 51°11.982 2°48.27 67.1 13.4 66 12.2
2006-04-12 11:19:11 51°12.083 2°48.587 70.5 13.6 64 12.4
2006-04-12 11:20:11 51°12.194 2°48.899 64 13.6 61 12.5
2006-04-12 11:21:11 51°12.306 2°49.209 64.5 13.5 59 12.6
2006-04-12 11:22:11 51°12.421 2°49.519 64.3 13.5 61 12.6
2006-04-12 11:23:11 51°12.54 2°49.826 61.9 13.6 56 12.6
2006-04-12 11:24:11 51°12.666 2°50.125 59.6 13.6 55 12.8
2006-04-12 11:25:11 51°12.793 2°50.422 60.4 13.5 55 12.9
2006-04-12 11:26:11 51°12.92 2°50.716 58.9 13.5 55 13.3
2006-04-12 11:27:11 51°13.041 2°51.015 61.7 13.4 55 13
2006-04-12 11:28:11 51°13.167 2°51.309 60.2 13.3 53 12.8
2006-04-12 11:29:11 51°13.294 2°51.602 59.8 13.4 59 12.9
2006-04-12 11:30:11 51°13.421 2°51.897 60 13.5 55 13.1
2006-04-12 11:31:11 51°13.537 2°52.17 61.8 11.3 55 12.9
2006-04-12 11:32:11 51°13.636 2°52.41 59.7 10.8 55 13.2
2006-04-12 11:33:11 51°13.734 2°52.644 60.1 10.6 56 12.8
2006-04-12 11:34:11 51°13.832 2°52.878 60.8 10.6 55 12.9
2006-04-12 11:35:11 51°13.918 2°53.087 61.4 8.2 58 12.8
2006-04-12 11:36:11 51°13.98 2°53.252 62.8 6.6 59 12.6
2006-04-12 11:37:11 51°14.031 2°53.379 58.5 5.2 57 12.9
2006-04-12 11:38:11 51°14.074 2°53.482 53.5 4.4 55 12.3
2006-04-12 11:39:11 51°14.113 2°53.574 56.6 4 56 12.3
2006-04-12 11:40:11 51°14.147 2°53.66 59 3.7 58 12.3
2006-04-12 11:41:11 51°14.178 2°53.741 54.9 3.5 55 12.2
2006-04-12 11:42:11 51°14.207 2°53.817 52.9 3.2 56 12.2
2006-04-12 11:43:11 51°14.235 2°53.888 47.3 3.1 57 12.3
2006-04-12 11:44:11 51°14.272 2°53.971 46.5 5.4 52 12.4
2006-04-12 11:45:11 51°14.352 2°54.143 60.3 10.2 59 12.3
2006-04-12 11:46:11 51°14.407 2°54.454 91.8 13.5 86 12.7
2006-04-12 11:47:11 51°14.422 2°54.818 98.7 13.8 91 12.8
2006-04-12 11:48:11 51°14.347 2°55.119 130.6 10.8 128 4.7
2006-04-12 11:49:11 51°14.256 2°55.274 139.6 6.8 137 4.9
2006-04-12 11:50:11 51°14.176 2°55.38 148.9 6 145 4.9
2006-04-12 11:51:11 51°14.087 2°55.451 159.2 6 156 12.9
2006-04-12 11:52:11 51°14.007 2°55.507 160 5 156 12.9
2006-04-12 11:53:11 51°13.931 2°55.561 160.4 5 158 12.8
2006-04-12 11:54:11 51°13.853 2°55.618 158.4 5.3 155 -999
2006-04-12 11:55:11 51°13.78 2°55.685 148.2 5 144 -999
2006-04-12 11:56:11 51°13.721 2°55.774 137.6 4.9 133 -999
2006-04-12 11:57:11 51°13.673 2°55.871 131.4 4.1 126 12.1
2006-04-12 11:58:10 51°13.641 2°55.941 126.5 2.9 122 12
2006-04-12 11:59:11 51°13.621 2°56.002 120 2.3 113 12
2006-04-12 12:00:14 51°13.609 2°56.059 111.1 2 107 -999
2006-04-12 12:01:14 51°13.602 2°56.095 114.9 0.6 104 -999
2006-04-12 12:02:15 51°13.601 2°56.099 114.5 0.2 75 -999